sensor_id;sensor_type;location;lat;lon;timestamp;P1;durP1;ratioP1;P2;durP2;ratioP2
8007;SDS011;4049;49.468;11.200;2022-07-10T00:00:50;3.53;;;2.77;;
8007;SDS011;4049;49.468;11.200;2022-07-10T00:03:18;3.37;;;2.80;;
8007;SDS011;4049;49.468;11.200;2022-07-10T00:05:45;3.67;;;2.97;;
8007;SDS011;4049;49.468;11.200;2022-07-10T00:08:13;4.73;;;3.40;;
8007;SDS011;4049;49.468;11.200;2022-07-10T00:10:40;3.40;;;3.10;;
8007;SDS011;4049;49.468;11.200;2022-07-10T00:13:09;4.13;;;3.07;;
8007;SDS011;4049;49.468;11.200;2022-07-10T00:15:36;4.57;;;3.53;;
8007;SDS011;4049;49.468;11.200;2022-07-10T00:18:03;3.47;;;3.10;;
8007;SDS011;4049;49.468;11.200;2022-07-10T00:20:30;4.20;;;3.27;;
8007;SDS011;4049;49.468;11.200;2022-07-10T00:22:57;3.87;;;3.10;;
8007;SDS011;4049;49.468;11.200;2022-07-10T00:25:24;3.43;;;3.00;;
8007;SDS011;4049;49.468;11.200;2022-07-10T00:27:51;3.83;;;3.07;;
8007;SDS011;4049;49.468;11.200;2022-07-10T00:30:19;3.63;;;3.10;;
8007;SDS011;4049;49.468;11.200;2022-07-10T00:32:46;4.30;;;3.07;;
8007;SDS011;4049;49.468;11.200;2022-07-10T00:35:13;4.47;;;3.50;;
8007;SDS011;4049;49.468;11.200;2022-07-10T00:37:40;3.27;;;2.73;;
8007;SDS011;4049;49.468;11.200;2022-07-10T00:40:07;3.77;;;3.23;;
8007;SDS011;4049;49.468;11.200;2022-07-10T00:42:35;3.80;;;3.23;;
8007;SDS011;4049;49.468;11.200;2022-07-10T00:45:02;3.90;;;3.47;;
8007;SDS011;4049;49.468;11.200;2022-07-10T00:47:30;4.67;;;2.97;;
8007;SDS011;4049;49.468;11.200;2022-07-10T00:49:58;3.40;;;3.03;;
8007;SDS011;4049;49.468;11.200;2022-07-10T00:52:24;5.07;;;3.40;;
8007;SDS011;4049;49.468;11.200;2022-07-10T00:54:52;3.67;;;3.37;;
8007;SDS011;4049;49.468;11.200;2022-07-10T00:57:19;3.27;;;2.97;;
8007;SDS011;4049;49.468;11.200;2022-07-10T00:59:48;3.50;;;2.80;;
8007;SDS011;4049;49.468;11.200;2022-07-10T01:02:15;4.13;;;3.47;;
8007;SDS011;4049;49.468;11.200;2022-07-10T01:04:44;4.20;;;3.33;;
8007;SDS011;4049;49.468;11.200;2022-07-10T01:07:12;4.77;;;3.10;;
8007;SDS011;4049;49.468;11.200;2022-07-10T01:09:41;5.47;;;3.73;;
8007;SDS011;4049;49.468;11.200;2022-07-10T01:12:08;4.27;;;3.37;;
8007;SDS011;4049;49.468;11.200;2022-07-10T01:14:37;3.97;;;3.50;;
8007;SDS011;4049;49.468;11.200;2022-07-10T01:17:06;3.37;;;3.07;;
8007;SDS011;4049;49.468;11.200;2022-07-10T01:19:33;4.67;;;3.73;;
8007;SDS011;4049;49.468;11.200;2022-07-10T01:22:02;3.63;;;3.33;;
8007;SDS011;4049;49.468;11.200;2022-07-10T01:24:29;5.13;;;3.80;;
8007;SDS011;4049;49.468;11.200;2022-07-10T01:26:56;4.43;;;3.60;;
8007;SDS011;4049;49.468;11.200;2022-07-10T01:29:23;4.53;;;3.43;;
8007;SDS011;4049;49.468;11.200;2022-07-10T01:31:50;4.23;;;3.53;;
8007;SDS011;4049;49.468;11.200;2022-07-10T01:34:17;3.90;;;3.50;;
8007;SDS011;4049;49.468;11.200;2022-07-10T01:36:44;3.93;;;3.40;;
8007;SDS011;4049;49.468;11.200;2022-07-10T01:39:13;4.63;;;3.13;;
8007;SDS011;4049;49.468;11.200;2022-07-10T01:41:40;4.50;;;3.60;;
8007;SDS011;4049;49.468;11.200;2022-07-10T01:44:07;4.13;;;3.17;;
8007;SDS011;4049;49.468;11.200;2022-07-10T01:46:34;4.03;;;3.33;;
8007;SDS011;4049;49.468;11.200;2022-07-10T01:49:01;3.37;;;3.07;;
8007;SDS011;4049;49.468;11.200;2022-07-10T01:51:28;3.97;;;3.07;;
8007;SDS011;4049;49.468;11.200;2022-07-10T01:53:55;4.57;;;3.27;;
8007;SDS011;4049;49.468;11.200;2022-07-10T01:56:24;3.93;;;3.20;;
8007;SDS011;4049;49.468;11.200;2022-07-10T01:58:51;4.30;;;3.40;;
8007;SDS011;4049;49.468;11.200;2022-07-10T02:01:17;3.70;;;3.33;;
8007;SDS011;4049;49.468;11.200;2022-07-10T02:03:44;4.20;;;3.43;;
8007;SDS011;4049;49.468;11.200;2022-07-10T02:06:29;4.03;;;3.13;;
8007;SDS011;4049;49.468;11.200;2022-07-10T02:08:56;3.73;;;3.30;;
8007;SDS011;4049;49.468;11.200;2022-07-10T02:11:25;4.37;;;3.47;;
8007;SDS011;4049;49.468;11.200;2022-07-10T02:13:52;4.23;;;3.43;;
8007;SDS011;4049;49.468;11.200;2022-07-10T02:16:19;4.73;;;3.60;;
8007;SDS011;4049;49.468;11.200;2022-07-10T02:18:46;5.47;;;3.67;;
8007;SDS011;4049;49.468;11.200;2022-07-10T02:21:13;4.10;;;3.27;;
8007;SDS011;4049;49.468;11.200;2022-07-10T02:23:40;3.73;;;3.23;;
8007;SDS011;4049;49.468;11.200;2022-07-10T02:26:07;6.27;;;3.87;;
8007;SDS011;4049;49.468;11.200;2022-07-10T02:28:35;5.13;;;3.70;;
8007;SDS011;4049;49.468;11.200;2022-07-10T02:31:02;3.50;;;3.20;;
8007;SDS011;4049;49.468;11.200;2022-07-10T02:33:29;5.53;;;3.30;;
8007;SDS011;4049;49.468;11.200;2022-07-10T02:35:56;3.97;;;3.50;;
8007;SDS011;4049;49.468;11.200;2022-07-10T02:38:23;4.57;;;3.30;;
8007;SDS011;4049;49.468;11.200;2022-07-10T02:40:50;4.20;;;3.40;;
8007;SDS011;4049;49.468;11.200;2022-07-10T02:43:17;5.57;;;4.10;;
8007;SDS011;4049;49.468;11.200;2022-07-10T02:45:46;3.90;;;3.33;;
8007;SDS011;4049;49.468;11.200;2022-07-10T02:48:14;4.10;;;3.50;;
8007;SDS011;4049;49.468;11.200;2022-07-10T02:50:41;4.90;;;3.63;;
8007;SDS011;4049;49.468;11.200;2022-07-10T02:53:08;4.27;;;3.60;;
8007;SDS011;4049;49.468;11.200;2022-07-10T02:55:35;4.80;;;3.50;;
8007;SDS011;4049;49.468;11.200;2022-07-10T02:58:02;4.27;;;3.83;;
8007;SDS011;4049;49.468;11.200;2022-07-10T03:00:29;4.30;;;3.90;;
8007;SDS011;4049;49.468;11.200;2022-07-10T03:02:57;4.70;;;3.80;;
8007;SDS011;4049;49.468;11.200;2022-07-10T03:05:24;4.90;;;4.00;;
8007;SDS011;4049;49.468;11.200;2022-07-10T03:07:51;3.97;;;3.57;;
8007;SDS011;4049;49.468;11.200;2022-07-10T03:10:18;4.77;;;3.73;;
8007;SDS011;4049;49.468;11.200;2022-07-10T03:12:46;5.40;;;3.70;;
8007;SDS011;4049;49.468;11.200;2022-07-10T03:15:13;4.60;;;3.80;;
8007;SDS011;4049;49.468;11.200;2022-07-10T03:17:40;4.63;;;3.90;;
8007;SDS011;4049;49.468;11.200;2022-07-10T03:20:09;3.77;;;3.30;;
8007;SDS011;4049;49.468;11.200;2022-07-10T03:22:36;3.90;;;3.47;;
8007;SDS011;4049;49.468;11.200;2022-07-10T03:25:04;5.47;;;3.30;;
8007;SDS011;4049;49.468;11.200;2022-07-10T03:27:31;5.20;;;3.40;;
8007;SDS011;4049;49.468;11.200;2022-07-10T03:29:58;5.20;;;3.47;;
8007;SDS011;4049;49.468;11.200;2022-07-10T03:32:25;5.27;;;3.10;;
8007;SDS011;4049;49.468;11.200;2022-07-10T03:34:52;3.20;;;2.90;;
8007;SDS011;4049;49.468;11.200;2022-07-10T03:37:21;4.03;;;3.03;;
8007;SDS011;4049;49.468;11.200;2022-07-10T03:39:47;3.13;;;2.73;;
8007;SDS011;4049;49.468;11.200;2022-07-10T03:42:14;5.20;;;2.87;;
8007;SDS011;4049;49.468;11.200;2022-07-10T03:44:41;4.50;;;3.10;;
8007;SDS011;4049;49.468;11.200;2022-07-10T03:47:09;4.10;;;3.20;;
8007;SDS011;4049;49.468;11.200;2022-07-10T03:49:36;4.10;;;2.60;;
8007;SDS011;4049;49.468;11.200;2022-07-10T03:52:04;6.80;;;3.07;;
8007;SDS011;4049;49.468;11.200;2022-07-10T03:54:33;2.90;;;2.60;;
8007;SDS011;4049;49.468;11.200;2022-07-10T03:57:00;3.53;;;2.70;;
8007;SDS011;4049;49.468;11.200;2022-07-10T03:59:45;3.20;;;2.70;;
8007;SDS011;4049;49.468;11.200;2022-07-10T04:02:12;5.73;;;2.90;;
8007;SDS011;4049;49.468;11.200;2022-07-10T04:04:38;3.50;;;2.87;;
8007;SDS011;4049;49.468;11.200;2022-07-10T04:07:05;5.60;;;2.50;;
8007;SDS011;4049;49.468;11.200;2022-07-10T04:09:34;4.47;;;2.83;;
8007;SDS011;4049;49.468;11.200;2022-07-10T04:12:01;3.90;;;2.50;;
8007;SDS011;4049;49.468;11.200;2022-07-10T04:14:28;4.00;;;2.50;;
8007;SDS011;4049;49.468;11.200;2022-07-10T04:16:55;3.87;;;2.47;;
8007;SDS011;4049;49.468;11.200;2022-07-10T04:19:22;5.43;;;2.43;;
8007;SDS011;4049;49.468;11.200;2022-07-10T04:21:49;4.53;;;2.70;;
8007;SDS011;4049;49.468;11.200;2022-07-10T04:24:16;7.23;;;2.50;;
8007;SDS011;4049;49.468;11.200;2022-07-10T04:26:44;4.33;;;2.80;;
8007;SDS011;4049;49.468;11.200;2022-07-10T04:29:11;4.10;;;2.27;;
8007;SDS011;4049;49.468;11.200;2022-07-10T04:31:38;4.47;;;2.87;;
8007;SDS011;4049;49.468;11.200;2022-07-10T04:34:05;8.57;;;2.87;;
8007;SDS011;4049;49.468;11.200;2022-07-10T04:36:32;3.50;;;2.30;;
8007;SDS011;4049;49.468;11.200;2022-07-10T04:38:59;4.90;;;2.67;;
8007;SDS011;4049;49.468;11.200;2022-07-10T04:41:26;4.73;;;2.83;;
8007;SDS011;4049;49.468;11.200;2022-07-10T04:43:55;2.33;;;2.07;;
8007;SDS011;4049;49.468;11.200;2022-07-10T04:46:22;3.30;;;2.03;;
8007;SDS011;4049;49.468;11.200;2022-07-10T04:48:49;3.43;;;2.07;;
8007;SDS011;4049;49.468;11.200;2022-07-10T04:51:16;3.70;;;2.20;;
8007;SDS011;4049;49.468;11.200;2022-07-10T04:53:43;4.53;;;1.93;;
8007;SDS011;4049;49.468;11.200;2022-07-10T04:56:10;4.70;;;2.20;;
8007;SDS011;4049;49.468;11.200;2022-07-10T04:58:37;2.27;;;1.77;;
8007;SDS011;4049;49.468;11.200;2022-07-10T05:01:06;4.33;;;2.20;;
8007;SDS011;4049;49.468;11.200;2022-07-10T05:03:33;4.33;;;2.10;;
8007;SDS011;4049;49.468;11.200;2022-07-10T05:06:00;2.93;;;2.00;;
8007;SDS011;4049;49.468;11.200;2022-07-10T05:08:27;2.30;;;1.90;;
8007;SDS011;4049;49.468;11.200;2022-07-10T05:10:53;3.70;;;2.10;;
8007;SDS011;4049;49.468;11.200;2022-07-10T05:13:20;2.77;;;2.03;;
8007;SDS011;4049;49.468;11.200;2022-07-10T05:15:48;4.93;;;2.03;;
8007;SDS011;4049;49.468;11.200;2022-07-10T05:18:16;2.87;;;1.50;;
8007;SDS011;4049;49.468;11.200;2022-07-10T05:20:43;5.33;;;1.80;;
8007;SDS011;4049;49.468;11.200;2022-07-10T05:23:12;2.67;;;1.90;;
8007;SDS011;4049;49.468;11.200;2022-07-10T05:25:40;4.20;;;1.93;;
8007;SDS011;4049;49.468;11.200;2022-07-10T05:28:07;3.73;;;1.70;;
8007;SDS011;4049;49.468;11.200;2022-07-10T05:30:33;4.90;;;1.83;;
8007;SDS011;4049;49.468;11.200;2022-07-10T05:33:00;3.90;;;1.80;;
8007;SDS011;4049;49.468;11.200;2022-07-10T05:35:29;6.40;;;1.80;;
8007;SDS011;4049;49.468;11.200;2022-07-10T05:37:56;4.70;;;1.70;;
8007;SDS011;4049;49.468;11.200;2022-07-10T05:40:23;3.23;;;1.70;;
8007;SDS011;4049;49.468;11.200;2022-07-10T05:42:50;4.67;;;2.07;;
8007;SDS011;4049;49.468;11.200;2022-07-10T05:45:17;2.97;;;1.73;;
8007;SDS011;4049;49.468;11.200;2022-07-10T05:47:44;3.70;;;1.73;;
8007;SDS011;4049;49.468;11.200;2022-07-10T05:50:11;6.40;;;2.30;;
8007;SDS011;4049;49.468;11.200;2022-07-10T05:52:40;3.23;;;1.53;;
8007;SDS011;4049;49.468;11.200;2022-07-10T05:55:07;2.17;;;1.43;;
8007;SDS011;4049;49.468;11.200;2022-07-10T05:57:34;1.60;;;1.50;;
8007;SDS011;4049;49.468;11.200;2022-07-10T06:00:02;4.23;;;2.00;;
8007;SDS011;4049;49.468;11.200;2022-07-10T06:02:30;1.97;;;1.27;;
8007;SDS011;4049;49.468;11.200;2022-07-10T06:04:57;2.73;;;1.63;;
8007;SDS011;4049;49.468;11.200;2022-07-10T06:07:24;2.80;;;1.60;;
8007;SDS011;4049;49.468;11.200;2022-07-10T06:09:53;3.57;;;1.70;;
8007;SDS011;4049;49.468;11.200;2022-07-10T06:12:20;2.10;;;1.40;;
8007;SDS011;4049;49.468;11.200;2022-07-10T06:14:47;2.77;;;1.23;;
8007;SDS011;4049;49.468;11.200;2022-07-10T06:17:14;3.60;;;1.80;;
8007;SDS011;4049;49.468;11.200;2022-07-10T06:19:41;2.73;;;1.50;;
8007;SDS011;4049;49.468;11.200;2022-07-10T06:22:08;4.40;;;1.73;;
8007;SDS011;4049;49.468;11.200;2022-07-10T06:24:53;3.13;;;1.57;;
8007;SDS011;4049;49.468;11.200;2022-07-10T06:27:20;4.03;;;1.63;;
8007;SDS011;4049;49.468;11.200;2022-07-10T06:29:48;2.33;;;1.30;;
8007;SDS011;4049;49.468;11.200;2022-07-10T06:32:15;2.10;;;1.33;;
8007;SDS011;4049;49.468;11.200;2022-07-10T06:34:42;1.97;;;1.23;;
8007;SDS011;4049;49.468;11.200;2022-07-10T06:37:09;1.50;;;1.40;;
8007;SDS011;4049;49.468;11.200;2022-07-10T06:39:36;1.90;;;1.30;;
8007;SDS011;4049;49.468;11.200;2022-07-10T06:42:05;2.00;;;1.30;;
8007;SDS011;4049;49.468;11.200;2022-07-10T06:44:32;1.33;;;1.23;;
8007;SDS011;4049;49.468;11.200;2022-07-10T06:47:00;1.57;;;1.20;;
8007;SDS011;4049;49.468;11.200;2022-07-10T06:49:44;2.23;;;1.03;;
8007;SDS011;4049;49.468;11.200;2022-07-10T06:52:13;2.27;;;1.37;;
8007;SDS011;4049;49.468;11.200;2022-07-10T06:54:41;2.27;;;1.40;;
8007;SDS011;4049;49.468;11.200;2022-07-10T06:57:09;2.23;;;1.40;;
8007;SDS011;4049;49.468;11.200;2022-07-10T06:59:37;2.50;;;1.43;;
8007;SDS011;4049;49.468;11.200;2022-07-10T07:02:05;1.80;;;1.23;;
8007;SDS011;4049;49.468;11.200;2022-07-10T07:04:32;2.30;;;1.30;;
8007;SDS011;4049;49.468;11.200;2022-07-10T07:06:59;1.93;;;1.50;;
8007;SDS011;4049;49.468;11.200;2022-07-10T07:09:28;1.50;;;1.40;;
8007;SDS011;4049;49.468;11.200;2022-07-10T07:11:55;1.30;;;1.20;;
8007;SDS011;4049;49.468;11.200;2022-07-10T07:14:24;2.20;;;1.20;;
8007;SDS011;4049;49.468;11.200;2022-07-10T07:16:51;3.07;;;1.50;;
8007;SDS011;4049;49.468;11.200;2022-07-10T07:19:31;4.27;;;1.30;;
8007;SDS011;4049;49.468;11.200;2022-07-10T07:22:18;1.20;;;1.10;;
8007;SDS011;4049;49.468;11.200;2022-07-10T07:25:03;1.43;;;1.10;;
8007;SDS011;4049;49.468;11.200;2022-07-10T07:27:30;3.27;;;1.13;;
8007;SDS011;4049;49.468;11.200;2022-07-10T07:30:02;1.47;;;1.00;;
8007;SDS011;4049;49.468;11.200;2022-07-10T07:32:29;4.97;;;1.20;;
8007;SDS011;4049;49.468;11.200;2022-07-10T07:34:56;2.03;;;1.20;;
8007;SDS011;4049;49.468;11.200;2022-07-10T07:37:34;1.23;;;1.00;;
8007;SDS011;4049;49.468;11.200;2022-07-10T07:40:02;2.23;;;0.83;;
8007;SDS011;4049;49.468;11.200;2022-07-10T07:42:29;3.07;;;0.90;;
8007;SDS011;4049;49.468;11.200;2022-07-10T07:44:56;3.20;;;0.97;;
8007;SDS011;4049;49.468;11.200;2022-07-10T07:47:25;1.13;;;1.03;;
8007;SDS011;4049;49.468;11.200;2022-07-10T07:49:52;1.27;;;1.00;;
8007;SDS011;4049;49.468;11.200;2022-07-10T07:52:19;1.20;;;1.10;;
8007;SDS011;4049;49.468;11.200;2022-07-10T07:54:47;1.70;;;0.90;;
8007;SDS011;4049;49.468;11.200;2022-07-10T07:57:16;1.30;;;1.03;;
8007;SDS011;4049;49.468;11.200;2022-07-10T07:59:42;0.80;;;0.80;;
8007;SDS011;4049;49.468;11.200;2022-07-10T08:02:10;1.33;;;0.97;;
8007;SDS011;4049;49.468;11.200;2022-07-10T08:04:38;1.67;;;0.90;;
8007;SDS011;4049;49.468;11.200;2022-07-10T08:07:05;1.90;;;1.17;;
8007;SDS011;4049;49.468;11.200;2022-07-10T08:09:32;1.93;;;1.00;;
8007;SDS011;4049;49.468;11.200;2022-07-10T08:12:00;1.27;;;1.00;;
8007;SDS011;4049;49.468;11.200;2022-07-10T08:14:27;3.60;;;1.07;;
8007;SDS011;4049;49.468;11.200;2022-07-10T08:16:54;1.50;;;1.10;;
8007;SDS011;4049;49.468;11.200;2022-07-10T08:19:21;0.83;;;0.83;;
8007;SDS011;4049;49.468;11.200;2022-07-10T08:21:49;1.63;;;0.90;;
8007;SDS011;4049;49.468;11.200;2022-07-10T08:24:16;1.23;;;0.90;;
8007;SDS011;4049;49.468;11.200;2022-07-10T08:26:43;1.50;;;1.00;;
8007;SDS011;4049;49.468;11.200;2022-07-10T08:29:10;2.97;;;1.07;;
8007;SDS011;4049;49.468;11.200;2022-07-10T08:31:37;1.30;;;0.80;;
8007;SDS011;4049;49.468;11.200;2022-07-10T08:34:05;1.93;;;0.70;;
8007;SDS011;4049;49.468;11.200;2022-07-10T08:36:32;1.10;;;0.93;;
8007;SDS011;4049;49.468;11.200;2022-07-10T08:39:00;0.67;;;0.67;;
8007;SDS011;4049;49.468;11.200;2022-07-10T08:41:27;1.23;;;0.80;;
8007;SDS011;4049;49.468;11.200;2022-07-10T08:43:57;2.50;;;1.20;;
8007;SDS011;4049;49.468;11.200;2022-07-10T08:46:25;2.77;;;1.00;;
8007;SDS011;4049;49.468;11.200;2022-07-10T08:48:53;0.80;;;0.77;;
8007;SDS011;4049;49.468;11.200;2022-07-10T08:51:23;1.20;;;0.80;;
8007;SDS011;4049;49.468;11.200;2022-07-10T08:54:02;1.20;;;0.80;;
8007;SDS011;4049;49.468;11.200;2022-07-10T08:56:31;0.90;;;0.80;;
8007;SDS011;4049;49.468;11.200;2022-07-10T08:59:00;1.37;;;0.80;;
8007;SDS011;4049;49.468;11.200;2022-07-10T09:01:29;2.00;;;0.83;;
8007;SDS011;4049;49.468;11.200;2022-07-10T09:03:57;1.53;;;0.80;;
8007;SDS011;4049;49.468;11.200;2022-07-10T09:06:24;1.67;;;0.80;;
8007;SDS011;4049;49.468;11.200;2022-07-10T09:08:59;0.83;;;0.70;;
8007;SDS011;4049;49.468;11.200;2022-07-10T09:11:29;0.70;;;0.70;;
8007;SDS011;4049;49.468;11.200;2022-07-10T09:13:58;0.50;;;0.50;;
8007;SDS011;4049;49.468;11.200;2022-07-10T09:16:26;1.07;;;0.60;;
8007;SDS011;4049;49.468;11.200;2022-07-10T09:18:54;0.70;;;0.70;;
8007;SDS011;4049;49.468;11.200;2022-07-10T09:21:21;1.50;;;0.77;;
8007;SDS011;4049;49.468;11.200;2022-07-10T09:23:49;1.83;;;0.93;;
8007;SDS011;4049;49.468;11.200;2022-07-10T09:26:17;1.13;;;0.47;;
8007;SDS011;4049;49.468;11.200;2022-07-10T09:28:44;1.80;;;0.50;;
8007;SDS011;4049;49.468;11.200;2022-07-10T09:31:12;1.23;;;0.90;;
8007;SDS011;4049;49.468;11.200;2022-07-10T09:33:39;0.83;;;0.80;;
8007;SDS011;4049;49.468;11.200;2022-07-10T09:36:07;1.00;;;0.60;;
8007;SDS011;4049;49.468;11.200;2022-07-10T09:38:52;1.63;;;0.50;;
8007;SDS011;4049;49.468;11.200;2022-07-10T09:41:24;0.60;;;0.60;;
8007;SDS011;4049;49.468;11.200;2022-07-10T09:43:53;0.73;;;0.50;;
8007;SDS011;4049;49.468;11.200;2022-07-10T09:46:22;3.07;;;0.70;;
8007;SDS011;4049;49.468;11.200;2022-07-10T09:49:03;1.80;;;0.60;;
8007;SDS011;4049;49.468;11.200;2022-07-10T09:51:32;0.40;;;0.40;;
8007;SDS011;4049;49.468;11.200;2022-07-10T09:54:01;0.43;;;0.43;;
8007;SDS011;4049;49.468;11.200;2022-07-10T09:56:43;1.20;;;0.60;;
8007;SDS011;4049;49.468;11.200;2022-07-10T09:59:13;0.73;;;0.60;;
8007;SDS011;4049;49.468;11.200;2022-07-10T10:01:44;0.50;;;0.50;;
8007;SDS011;4049;49.468;11.200;2022-07-10T10:04:12;2.00;;;0.57;;
8007;SDS011;4049;49.468;11.200;2022-07-10T10:06:40;0.50;;;0.50;;
8007;SDS011;4049;49.468;11.200;2022-07-10T10:09:08;0.63;;;0.57;;
8007;SDS011;4049;49.468;11.200;2022-07-10T10:11:43;0.70;;;0.70;;
8007;SDS011;4049;49.468;11.200;2022-07-10T10:14:12;0.60;;;0.60;;
8007;SDS011;4049;49.468;11.200;2022-07-10T10:16:45;0.70;;;0.70;;
8007;SDS011;4049;49.468;11.200;2022-07-10T10:19:13;1.07;;;0.60;;
8007;SDS011;4049;49.468;11.200;2022-07-10T10:21:59;1.23;;;0.60;;
8007;SDS011;4049;49.468;11.200;2022-07-10T10:24:28;0.90;;;0.80;;
8007;SDS011;4049;49.468;11.200;2022-07-10T10:27:00;0.60;;;0.60;;
8007;SDS011;4049;49.468;11.200;2022-07-10T10:29:28;0.97;;;0.80;;
8007;SDS011;4049;49.468;11.200;2022-07-10T10:31:55;0.40;;;0.40;;
8007;SDS011;4049;49.468;11.200;2022-07-10T10:34:38;1.23;;;0.90;;
8007;SDS011;4049;49.468;11.200;2022-07-10T10:37:07;2.27;;;0.90;;
8007;SDS011;4049;49.468;11.200;2022-07-10T10:40:02;1.27;;;1.10;;
8007;SDS011;4049;49.468;11.200;2022-07-10T10:42:33;1.97;;;0.70;;
8007;SDS011;4049;49.468;11.200;2022-07-10T10:47:59;2.00;;;0.80;;
8007;SDS011;4049;49.468;11.200;2022-07-10T10:50:37;1.70;;;0.80;;
8007;SDS011;4049;49.468;11.200;2022-07-10T10:53:05;0.80;;;0.77;;
8007;SDS011;4049;49.468;11.200;2022-07-10T10:55:39;0.70;;;0.70;;
8007;SDS011;4049;49.468;11.200;2022-07-10T10:58:15;1.10;;;1.00;;
8007;SDS011;4049;49.468;11.200;2022-07-10T11:00:44;0.90;;;0.77;;
8007;SDS011;4049;49.468;11.200;2022-07-10T11:03:20;1.37;;;1.00;;
8007;SDS011;4049;49.468;11.200;2022-07-10T11:05:49;2.03;;;0.83;;
8007;SDS011;4049;49.468;11.200;2022-07-10T11:08:36;1.03;;;0.73;;
8007;SDS011;4049;49.468;11.200;2022-07-10T11:14:08;2.07;;;0.70;;
8007;SDS011;4049;49.468;11.200;2022-07-10T11:16:37;0.83;;;0.57;;
8007;SDS011;4049;49.468;11.200;2022-07-10T11:19:13;1.00;;;0.90;;
8007;SDS011;4049;49.468;11.200;2022-07-10T11:21:45;1.23;;;0.70;;
8007;SDS011;4049;49.468;11.200;2022-07-10T11:24:18;2.53;;;0.83;;
8007;SDS011;4049;49.468;11.200;2022-07-10T11:27:09;0.80;;;0.80;;
8007;SDS011;4049;49.468;11.200;2022-07-10T11:29:50;2.20;;;0.87;;
8007;SDS011;4049;49.468;11.200;2022-07-10T11:32:23;1.33;;;0.70;;
8007;SDS011;4049;49.468;11.200;2022-07-10T11:34:51;3.23;;;0.90;;
8007;SDS011;4049;49.468;11.200;2022-07-10T11:37:18;0.80;;;0.80;;
8007;SDS011;4049;49.468;11.200;2022-07-10T11:39:45;1.07;;;0.80;;
8007;SDS011;4049;49.468;11.200;2022-07-10T11:42:12;1.10;;;0.87;;
8007;SDS011;4049;49.468;11.200;2022-07-10T11:44:39;2.63;;;0.90;;
8007;SDS011;4049;49.468;11.200;2022-07-10T11:47:07;2.73;;;1.10;;
8007;SDS011;4049;49.468;11.200;2022-07-10T11:49:40;1.67;;;0.80;;
8007;SDS011;4049;49.468;11.200;2022-07-10T11:52:11;1.37;;;0.87;;
8007;SDS011;4049;49.468;11.200;2022-07-10T11:54:38;1.53;;;0.60;;
8007;SDS011;4049;49.468;11.200;2022-07-10T11:57:07;2.00;;;0.60;;
8007;SDS011;4049;49.468;11.200;2022-07-10T11:59:35;0.67;;;0.67;;
8007;SDS011;4049;49.468;11.200;2022-07-10T12:02:03;2.17;;;1.00;;
8007;SDS011;4049;49.468;11.200;2022-07-10T12:04:33;1.57;;;0.77;;
8007;SDS011;4049;49.468;11.200;2022-07-10T12:07:00;2.13;;;0.77;;
8007;SDS011;4049;49.468;11.200;2022-07-10T12:09:27;1.33;;;0.70;;
8007;SDS011;4049;49.468;11.200;2022-07-10T12:11:58;1.60;;;0.80;;
8007;SDS011;4049;49.468;11.200;2022-07-10T12:14:25;1.37;;;0.80;;
8007;SDS011;4049;49.468;11.200;2022-07-10T12:16:53;0.70;;;0.70;;
8007;SDS011;4049;49.468;11.200;2022-07-10T12:19:22;0.73;;;0.60;;
8007;SDS011;4049;49.468;11.200;2022-07-10T12:21:51;0.50;;;0.50;;
8007;SDS011;4049;49.468;11.200;2022-07-10T12:24:19;1.90;;;0.70;;
8007;SDS011;4049;49.468;11.200;2022-07-10T12:26:48;1.13;;;0.60;;
8007;SDS011;4049;49.468;11.200;2022-07-10T12:29:20;1.80;;;0.60;;
8007;SDS011;4049;49.468;11.200;2022-07-10T12:31:49;1.87;;;0.43;;
8007;SDS011;4049;49.468;11.200;2022-07-10T12:34:17;0.50;;;0.50;;
8007;SDS011;4049;49.468;11.200;2022-07-10T12:36:45;0.67;;;0.57;;
8007;SDS011;4049;49.468;11.200;2022-07-10T12:39:16;0.53;;;0.53;;
8007;SDS011;4049;49.468;11.200;2022-07-10T12:41:54;0.63;;;0.63;;
8007;SDS011;4049;49.468;11.200;2022-07-10T12:44:37;1.03;;;0.57;;
8007;SDS011;4049;49.468;11.200;2022-07-10T12:47:06;0.87;;;0.60;;
8007;SDS011;4049;49.468;11.200;2022-07-10T12:49:53;0.70;;;0.70;;
8007;SDS011;4049;49.468;11.200;2022-07-10T12:52:22;0.73;;;0.60;;
8007;SDS011;4049;49.468;11.200;2022-07-10T12:57:45;1.00;;;0.70;;
8007;SDS011;4049;49.468;11.200;2022-07-10T13:00:16;0.90;;;0.67;;
8007;SDS011;4049;49.468;11.200;2022-07-10T13:02:45;0.60;;;0.60;;
8007;SDS011;4049;49.468;11.200;2022-07-10T13:05:24;1.37;;;0.70;;
8007;SDS011;4049;49.468;11.200;2022-07-10T13:08:05;2.03;;;0.90;;
8007;SDS011;4049;49.468;11.200;2022-07-10T13:10:36;1.63;;;0.60;;
8007;SDS011;4049;49.468;11.200;2022-07-10T13:13:04;2.00;;;0.60;;
8007;SDS011;4049;49.468;11.200;2022-07-10T13:15:31;1.40;;;0.90;;
8007;SDS011;4049;49.468;11.200;2022-07-10T13:18:04;2.03;;;0.77;;
8007;SDS011;4049;49.468;11.200;2022-07-10T13:20:32;3.00;;;0.90;;
8007;SDS011;4049;49.468;11.200;2022-07-10T13:22:59;0.77;;;0.73;;
8007;SDS011;4049;49.468;11.200;2022-07-10T13:25:26;1.13;;;0.70;;
8007;SDS011;4049;49.468;11.200;2022-07-10T13:27:54;1.27;;;0.87;;
8007;SDS011;4049;49.468;11.200;2022-07-10T13:30:21;2.57;;;0.80;;
8007;SDS011;4049;49.468;11.200;2022-07-10T13:32:48;1.33;;;0.70;;
8007;SDS011;4049;49.468;11.200;2022-07-10T13:35:15;0.80;;;0.80;;
8007;SDS011;4049;49.468;11.200;2022-07-10T13:37:42;2.30;;;0.70;;
8007;SDS011;4049;49.468;11.200;2022-07-10T13:40:09;1.33;;;0.80;;
8007;SDS011;4049;49.468;11.200;2022-07-10T13:42:37;0.80;;;0.80;;
8007;SDS011;4049;49.468;11.200;2022-07-10T13:45:06;5.13;;;2.00;;
8007;SDS011;4049;49.468;11.200;2022-07-10T13:47:34;2.20;;;1.50;;
8007;SDS011;4049;49.468;11.200;2022-07-10T13:50:01;1.90;;;1.10;;
8007;SDS011;4049;49.468;11.200;2022-07-10T13:52:28;1.70;;;0.67;;
8007;SDS011;4049;49.468;11.200;2022-07-10T13:54:55;0.67;;;0.60;;
8007;SDS011;4049;49.468;11.200;2022-07-10T13:57:22;0.80;;;0.70;;
8007;SDS011;4049;49.468;11.200;2022-07-10T13:59:50;0.87;;;0.80;;
8007;SDS011;4049;49.468;11.200;2022-07-10T14:02:20;0.87;;;0.80;;
8007;SDS011;4049;49.468;11.200;2022-07-10T14:04:47;0.57;;;0.57;;
8007;SDS011;4049;49.468;11.200;2022-07-10T14:07:14;1.37;;;0.80;;
8007;SDS011;4049;49.468;11.200;2022-07-10T14:09:41;1.07;;;0.73;;
8007;SDS011;4049;49.468;11.200;2022-07-10T14:12:08;0.80;;;0.80;;
8007;SDS011;4049;49.468;11.200;2022-07-10T14:14:35;1.10;;;0.67;;
8007;SDS011;4049;49.468;11.200;2022-07-10T14:17:02;0.70;;;0.70;;
8007;SDS011;4049;49.468;11.200;2022-07-10T14:19:31;0.70;;;0.70;;
8007;SDS011;4049;49.468;11.200;2022-07-10T14:21:58;0.77;;;0.63;;
8007;SDS011;4049;49.468;11.200;2022-07-10T14:24:25;0.63;;;0.63;;
8007;SDS011;4049;49.468;11.200;2022-07-10T14:26:52;4.00;;;0.70;;
8007;SDS011;4049;49.468;11.200;2022-07-10T14:29:19;1.43;;;0.93;;
8007;SDS011;4049;49.468;11.200;2022-07-10T14:31:46;0.83;;;0.80;;
8007;SDS011;4049;49.468;11.200;2022-07-10T14:34:14;0.80;;;0.80;;
8007;SDS011;4049;49.468;11.200;2022-07-10T14:36:42;0.70;;;0.70;;
8007;SDS011;4049;49.468;11.200;2022-07-10T14:39:09;2.10;;;0.90;;
8007;SDS011;4049;49.468;11.200;2022-07-10T14:41:37;1.03;;;0.90;;
8007;SDS011;4049;49.468;11.200;2022-07-10T14:44:04;2.60;;;1.70;;
8007;SDS011;4049;49.468;11.200;2022-07-10T14:46:32;2.53;;;1.90;;
8007;SDS011;4049;49.468;11.200;2022-07-10T14:48:59;3.67;;;2.00;;
8007;SDS011;4049;49.468;11.200;2022-07-10T14:51:26;2.30;;;1.17;;
8007;SDS011;4049;49.468;11.200;2022-07-10T14:53:55;2.17;;;1.07;;
8007;SDS011;4049;49.468;11.200;2022-07-10T14:56:22;1.10;;;0.90;;
8007;SDS011;4049;49.468;11.200;2022-07-10T14:58:49;0.70;;;0.70;;
8007;SDS011;4049;49.468;11.200;2022-07-10T15:01:16;1.90;;;0.80;;
8007;SDS011;4049;49.468;11.200;2022-07-10T15:03:43;2.30;;;1.03;;
8007;SDS011;4049;49.468;11.200;2022-07-10T15:06:10;1.43;;;1.10;;
8007;SDS011;4049;49.468;11.200;2022-07-10T15:08:37;1.50;;;1.40;;
8007;SDS011;4049;49.468;11.200;2022-07-10T15:11:06;1.53;;;1.00;;
8007;SDS011;4049;49.468;11.200;2022-07-10T15:13:33;1.17;;;0.93;;
8007;SDS011;4049;49.468;11.200;2022-07-10T15:16:00;2.37;;;0.93;;
8007;SDS011;4049;49.468;11.200;2022-07-10T15:18:27;1.43;;;1.10;;